Time;durP1;ratioP1;P1;durP2;ratioP2;P2;SDS_P1;SDS_P2;PMS_P1;PMS_P2;Temp;Humidity;BMP_temperature;BMP_pressure;BME280_temperature;BME280_humidity;BME280_pressure;Samples;Min_cycle;Max_cycle;Signal;HPM_P1;HPM_P2
2023/07/11 00:04:15;;;;;;;;;;;;;;;22.10;100.00;95990.59;10538867;28;2208;-70
2023/07/11 00:09:21;;;;;;;;;;;;;;;21.98;100.00;95987.81;10512876;28;2065;-68
2023/07/11 00:14:25;;;;;;;;;;;;;;;21.89;100.00;96000.81;10546674;28;2042;-69
2023/07/11 00:19:31;;;;;;;;;;;;;;;21.93;100.00;95990.78;10543951;28;2220;-68
2023/07/11 00:24:34;;;;;;;;;;;;;;;22.00;100.00;95996.47;10548827;28;2041;-67
2023/07/11 00:29:37;;;;;;;;;;;;;;;21.79;100.00;95993.03;10545765;28;2041;-68
2023/07/11 00:34:41;;;;;;;;;;;;;;;21.71;100.00;95992.00;10541352;28;2464;-68
2023/07/11 00:39:44;;;;;;;;;;;;;;;21.86;100.00;95996.00;10545603;28;2027;-67
2023/07/11 00:44:47;;;;;;;;;;;;;;;21.69;100.00;95988.00;10550970;28;5120;-68
2023/07/11 00:49:52;;;;;;;;;;;;;;;21.67;100.00;95982.06;10547129;27;2065;-68
2023/07/11 00:54:55;;;;;;;;;;;;;;;21.53;100.00;95980.47;10553742;27;1965;-68
2023/07/11 01:00:00;;;;;;;;;;;;;;;21.59;100.00;95970.09;10533350;28;2543;-68
2023/07/11 01:05:04;;;;;;;;;;;;;;;21.51;100.00;95957.34;10550810;27;2016;-67
2023/07/11 01:10:07;;;;;;;;;;;;;;;21.50;100.00;95962.00;10551246;27;2022;-67
2023/07/11 01:15:13;;;;;;;;;;;;;;;21.43;100.00;95964.47;10530487;27;2093;-69
2023/07/11 01:20:18;;;;;;;;;;;;;;;21.49;100.00;95954.13;10553703;27;1984;-67
2023/07/11 01:25:25;;;;;;;;;;;;;;;21.36;100.00;95956.03;10534672;27;1975;-68
2023/07/11 01:30:28;;;;;;;;;;;;;;;21.37;100.00;95960.34;10556636;27;2352;-67
2023/07/11 01:35:31;;;;;;;;;;;;;;;21.22;100.00;95955.50;10549552;27;2013;-68
2023/07/11 01:40:34;;;;;;;;;;;;;;;21.26;100.00;95945.50;10558659;27;4378;-67
2023/07/11 01:45:40;;;;;;;;;;;;;;;21.19;100.00;95939.78;10533437;27;2084;-70
2023/07/11 01:50:46;;;;;;;;;;;;;;;21.22;100.00;95933.63;10550508;27;1973;-74
2023/07/11 01:55:50;;;;;;;;;;;;;;;21.18;100.00;95927.25;10550037;27;1977;-68
2023/07/11 02:00:55;;;;;;;;;;;;;;;21.12;100.00;95921.22;10549173;27;2055;-69
2023/07/11 02:05:59;;;;;;;;;;;;;;;21.21;100.00;95926.56;10549337;27;2040;-67
2023/07/11 02:11:03;;;;;;;;;;;;;;;21.09;100.00;95921.88;10550952;27;2073;-68
2023/07/11 02:16:06;;;;;;;;;;;;;;;21.21;100.00;95921.09;10548427;27;2041;-68
2023/07/11 02:21:11;;;;;;;;;;;;;;;21.01;100.00;95918.09;10549703;27;2314;-67
2023/07/11 02:26:15;;;;;;;;;;;;;;;21.03;100.00;95921.28;10549081;27;2007;-68
2023/07/11 02:31:18;;;;;;;;;;;;;;;21.01;100.00;95915.38;10552779;27;2013;-67
2023/07/11 02:36:20;;;;;;;;;;;;;;;20.97;100.00;95910.91;10549653;27;2202;-68
2023/07/11 02:41:24;;;;;;;;;;;;;;;20.87;100.00;95906.66;10553779;27;4616;-67
2023/07/11 02:46:30;;;;;;;;;;;;;;;20.73;100.00;95906.94;10532978;27;2166;-68
2023/07/11 02:51:36;;;;;;;;;;;;;;;20.70;100.00;95906.81;10548969;27;2038;-67
2023/07/11 02:56:41;;;;;;;;;;;;;;;20.74;100.00;95897.63;10542945;27;2071;-68
2023/07/11 03:01:45;;;;;;;;;;;;;;;20.62;100.00;95886.66;10527321;28;2306;-68
2023/07/11 03:06:48;;;;;;;;;;;;;;;20.56;100.00;95887.19;10528169;28;2128;-68
2023/07/11 03:11:52;;;;;;;;;;;;;;;20.56;100.00;95887.97;10529104;27;2179;-67
2023/07/11 03:16:55;;;;;;;;;;;;;;;20.71;100.00;95881.09;10514666;27;1989;-67
2023/07/11 03:21:58;;;;;;;;;;;;;;;20.90;100.00;95872.41;10548254;27;2034;-68
2023/07/11 03:27:01;;;;;;;;;;;;;;;20.98;100.00;95871.50;10548596;27;2311;-69
2023/07/11 03:32:05;;;;;;;;;;;;;;;21.05;100.00;95869.81;10550278;27;2054;-68
2023/07/11 03:37:08;;;;;;;;;;;;;;;21.12;100.00;95866.53;10528854;28;1998;-71
2023/07/11 03:42:11;;;;;;;;;;;;;;;21.04;100.00;95862.75;10533573;27;2230;-67
2023/07/11 03:47:14;;;;;;;;;;;;;;;20.95;100.00;95859.31;10545080;28;2029;-71
2023/07/11 03:52:19;;;;;;;;;;;;;;;21.12;100.00;95858.34;10546207;28;2052;-69
2023/07/11 03:57:23;;;;;;;;;;;;;;;21.14;100.00;95855.25;10545763;28;2040;-68
2023/07/11 04:02:26;;;;;;;;;;;;;;;21.32;100.00;95845.75;10524810;28;1940;-67
2023/07/11 04:07:30;;;;;;;;;;;;;;;21.44;100.00;95843.03;10547161;28;1974;-69
2023/07/11 04:12:34;;;;;;;;;;;;;;;21.63;100.00;95849.84;10544333;28;2119;-67
2023/07/11 04:17:40;;;;;;;;;;;;;;;21.81;100.00;95859.41;10544311;28;2004;-69
2023/07/11 04:22:44;;;;;;;;;;;;;;;22.02;100.00;95843.66;10546343;27;2399;-71
2023/07/11 04:27:51;;;;;;;;;;;;;;;22.29;100.00;95846.81;10556541;27;1970;-68
2023/07/11 04:32:56;;;;;;;;;;;;;;;22.55;100.00;95844.44;10538889;27;2185;-70
2023/07/11 04:38:00;;;;;;;;;;;;;;;22.77;100.00;95847.75;10552934;27;3733;-70
2023/07/11 04:43:03;;;;;;;;;;;;;;;22.97;100.00;95846.81;10538612;27;4584;-67
2023/07/11 04:48:08;;;;;;;;;;;;;;;23.17;100.00;95845.75;10556670;27;2005;-69
2023/07/11 04:53:11;;;;;;;;;;;;;;;23.36;100.00;95844.25;10532673;27;2279;-67
2023/07/11 04:58:16;;;;;;;;;;;;;;;23.55;100.00;95855.31;10551002;27;2027;-68
2023/07/11 05:03:19;;;;;;;;;;;;;;;23.80;100.00;95849.66;10534379;27;2164;-68
2023/07/11 05:08:29;;;;;;;;;;;;;;;23.89;100.00;95847.50;10532870;27;2318;-69
2023/07/11 05:13:33;;;;;;;;;;;;;;;23.96;100.00;95842.97;10550564;27;2006;-69
2023/07/11 05:18:40;;;;;;;;;;;;;;;24.14;100.00;95837.88;10549913;27;2379;-69
2023/07/11 05:23:47;;;;;;;;;;;;;;;24.26;100.00;95829.50;10551545;27;2101;-69
2023/07/11 05:28:51;;;;;;;;;;;;;;;24.48;100.00;95832.72;10553108;27;2055;-68
2023/07/11 05:33:55;;;;;;;;;;;;;;;24.83;100.00;95840.09;10534193;27;2034;-68
2023/07/11 05:39:00;;;;;;;;;;;;;;;24.98;100.00;95839.19;10559075;27;2130;-72
2023/07/11 05:44:04;;;;;;;;;;;;;;;25.19;100.00;95841.56;10554248;27;4597;-71
2023/07/11 05:49:10;;;;;;;;;;;;;;;25.58;100.00;95843.03;10549104;27;2241;-71
2023/07/11 05:54:14;;;;;;;;;;;;;;;26.42;100.00;95845.88;10549790;27;1976;-69
2023/07/11 05:59:18;;;;;;;;;;;;;;;26.88;96.95;95829.88;10552776;27;2054;-69
2023/07/11 06:09:45;;;;;;;;;;;;;;;26.75;100.00;95829.34;10544061;27;2027;-82
2023/07/11 06:14:54;;;;;;;;;;;;;;;26.73;99.85;95826.19;10544076;27;2001;-79
2023/07/11 06:20:13;;;;;;;;;;;;;;;26.95;96.29;95819.72;10527743;27;2026;-80
2023/07/11 06:25:19;;;;;;;;;;;;;;;27.14;93.86;95827.03;10527819;28;2002;-81
2023/07/11 06:30:24;;;;;;;;;;;;;;;27.56;92.37;95816.78;10545202;27;1949;-78
2023/07/11 06:35:27;;;;;;;;;;;;;;;27.52;84.84;95818.69;10545801;27;1943;-77
2023/07/11 06:40:36;;;;;;;;;;;;;;;27.90;66.16;95814.66;10555194;27;4516;-78
2023/07/11 06:45:42;;;;;;;;;;;;;;;27.99;61.15;95818.69;10519889;28;1957;-81
2023/07/11 06:56:21;;;;;;;;;;;;;;;27.46;69.62;95819.03;10544138;27;1881;-80
2023/07/11 07:01:27;;;;;;;;;;;;;;;28.02;75.08;95817.91;10535982;27;1975;-82
2023/07/11 07:06:49;;;;;;;;;;;;;;;27.63;79.65;95811.31;10540681;27;1891;-81
2023/07/11 07:11:58;;;;;;;;;;;;;;;28.04;79.09;95813.97;10544578;27;2288;-81
2023/07/11 07:17:03;;;;;;;;;;;;;;;28.27;73.81;95806.22;10542756;27;1899;-79
2023/07/11 07:22:35;;;;;;;;;;;;;;;28.73;66.46;95809.19;10546085;28;2916;-81
2023/07/11 07:27:43;;;;;;;;;;;;;;;29.19;62.49;95797.44;10542812;27;1918;-84
2023/07/11 07:32:48;;;;;;;;;;;;;;;29.61;60.36;95798.69;10544394;27;1888;-78
2023/07/11 07:37:53;;;;;;;;;;;;;;;29.07;59.27;95795.06;10540878;27;1891;-80
2023/07/11 07:42:58;;;;;;;;;;;;;;;28.76;63.38;95799.34;10519923;27;1893;-75
2023/07/11 07:53:27;;;;;;;;;;;;;;;29.21;61.70;95789.56;10531486;28;2215;-80
2023/07/11 07:58:31;;;;;;;;;;;;;;;29.32;58.08;95784.00;10518033;28;2147;-80
2023/07/11 08:03:57;;;;;;;;;;;;;;;29.58;57.86;95792.00;10500545;28;1902;-81
2023/07/11 08:09:09;;;;;;;;;;;;;;;29.91;54.59;95781.66;10537037;28;1969;-79
2023/07/11 08:14:22;;;;;;;;;;;;;;;29.66;56.44;95772.59;10538400;28;1968;-82
2023/07/11 08:24:53;;;;;;;;;;;;;;;30.43;53.91;95770.84;10543168;28;2064;-81
2023/07/11 08:30:02;;;;;;;;;;;;;;;30.17;54.41;95765.78;10545179;28;1886;-80
2023/07/11 08:35:30;;;;;;;;;;;;;;;30.49;55.09;95760.91;10493688;27;2689;-77
2023/07/11 08:40:33;;;;;;;;;;;;;;;30.35;57.05;95753.44;10491484;28;2372;-82
2023/07/11 08:45:49;;;;;;;;;;;;;;;30.79;56.63;95763.13;10494928;28;2139;-80
2023/07/11 08:51:09;;;;;;;;;;;;;;;31.53;54.13;95749.16;10497725;28;2267;-82
2023/07/11 08:56:11;;;;;;;;;;;;;;;31.24;54.37;95745.81;10498293;28;1900;-85
2023/07/11 09:01:14;;;;;;;;;;;;;;;31.70;52.88;95737.88;10494068;28;1917;-84
2023/07/11 09:06:16;;;;;;;;;;;;;;;31.80;52.37;95736.22;10501065;28;1909;-83
2023/07/11 09:11:19;;;;;;;;;;;;;;;31.51;53.84;95734.91;10494152;28;1985;-78
2023/07/11 09:16:21;;;;;;;;;;;;;;;31.95;53.57;95731.31;10493452;28;1953;-78
2023/07/11 09:21:24;;;;;;;;;;;;;;;32.12;53.63;95721.97;10487065;28;1895;-77
2023/07/11 09:26:27;;;;;;;;;;;;;;;32.33;55.52;95720.16;10524009;28;1932;-85
2023/07/11 09:31:29;;;;;;;;;;;;;;;32.06;54.83;95709.72;10494982;28;1971;-81
2023/07/11 09:36:32;;;;;;;;;;;;;;;32.45;55.83;95702.94;10492290;28;2071;-81
2023/07/11 09:41:34;;;;;;;;;;;;;;;32.59;55.28;95699.97;10494168;28;4615;-82
2023/07/11 09:46:51;;;;;;;;;;;;;;;32.16;57.47;95692.13;10464449;28;2042;-85
2023/07/11 09:51:54;;;;;;;;;;;;;;;32.42;57.33;95687.06;10464717;28;2156;-77
2023/07/11 09:57:01;;;;;;;;;;;;;;;32.66;54.08;95687.94;10459688;28;2036;-82
2023/07/11 10:02:03;;;;;;;;;;;;;;;32.71;52.96;95688.25;10465646;28;1907;-83
2023/07/11 10:07:06;;;;;;;;;;;;;;;32.89;49.04;95681.66;10465360;28;1901;-82
2023/07/11 10:12:08;;;;;;;;;;;;;;;32.59;48.16;95674.91;10463363;28;1910;-82
2023/07/11 10:17:11;;;;;;;;;;;;;;;32.58;47.42;95673.34;10463467;28;1947;-78
2023/07/11 10:22:13;;;;;;;;;;;;;;;32.52;47.51;95675.81;10464866;28;1921;-79
2023/07/11 10:27:16;;;;;;;;;;;;;;;32.57;44.54;95649.50;10465977;28;1876;-78
2023/07/11 10:32:19;;;;;;;;;;;;;;;32.74;46.45;95645.66;10467658;28;2168;-77
2023/07/11 10:37:24;;;;;;;;;;;;;;;32.91;44.08;95643.06;10460958;28;1955;-80
2023/07/11 10:42:26;;;;;;;;;;;;;;;32.96;44.59;95646.16;10463734;28;1951;-81
2023/07/11 10:47:29;;;;;;;;;;;;;;;33.29;38.17;95627.69;10464876;28;2023;-82
2023/07/11 10:52:32;;;;;;;;;;;;;;;34.39;36.46;95627.53;10467218;28;1973;-78
2023/07/11 10:57:37;;;;;;;;;;;;;;;34.99;34.78;95612.63;10463752;28;2342;-80
2023/07/11 11:02:46;;;;;;;;;;;;;;;35.83;34.26;95611.63;10459230;28;1901;-78
2023/07/11 11:07:49;;;;;;;;;;;;;;;36.20;32.88;95598.19;10467592;28;1974;-78
2023/07/11 11:12:51;;;;;;;;;;;;;;;36.58;32.80;95589.84;10462823;28;1979;-78
2023/07/11 11:17:56;;;;;;;;;;;;;;;36.19;32.76;95577.03;10461070;28;2012;-76
2023/07/11 11:22:58;;;;;;;;;;;;;;;35.89;33.09;95567.13;10459555;28;1896;-77
2023/07/11 11:28:02;;;;;;;;;;;;;;;35.99;33.87;95558.44;10461976;28;2027;-79
2023/07/11 11:33:05;;;;;;;;;;;;;;;35.99;33.76;95558.44;10460338;28;1978;-76
2023/07/11 11:38:08;;;;;;;;;;;;;;;35.37;34.55;95563.31;10464249;28;1900;-73
2023/07/11 11:43:10;;;;;;;;;;;;;;;34.49;35.46;95552.41;10461603;28;4584;-75
2023/07/11 11:48:15;;;;;;;;;;;;;;;34.56;35.04;95549.44;10467165;28;1960;-75
2023/07/11 11:53:22;;;;;;;;;;;;;;;34.51;35.79;95544.38;10460203;28;2414;-76
2023/07/11 11:58:24;;;;;;;;;;;;;;;34.51;35.95;95536.00;10455863;28;1908;-76
2023/07/11 12:03:27;;;;;;;;;;;;;;;34.40;36.48;95533.44;10459311;28;1917;-77
2023/07/11 12:08:30;;;;;;;;;;;;;;;34.67;36.81;95527.63;10455110;28;1986;-78
2023/07/11 12:13:32;;;;;;;;;;;;;;;34.74;37.21;95516.31;10456542;28;2059;-75
2023/07/11 12:18:35;;;;;;;;;;;;;;;34.59;38.52;95526.25;10456557;28;2070;-75
2023/07/11 12:23:37;;;;;;;;;;;;;;;34.78;37.65;95516.97;10453517;28;1913;-75
2023/07/11 12:29:00;;;;;;;;;;;;;;;34.70;37.71;95500.84;10453029;28;1920;-75
2023/07/11 12:34:02;;;;;;;;;;;;;;;34.59;37.25;95498.31;10456206;28;2184;-76
2023/07/11 12:39:05;;;;;;;;;;;;;;;34.64;36.65;95489.44;10458029;28;1907;-76
2023/07/11 12:44:08;;;;;;;;;;;;;;;34.75;37.01;95481.56;10456881;28;2129;-76
2023/07/11 12:49:10;;;;;;;;;;;;;;;34.70;36.67;95478.53;10453017;28;2368;-75
2023/07/11 12:54:13;;;;;;;;;;;;;;;34.64;37.16;95472.69;10453978;28;1918;-74
2023/07/11 12:59:15;;;;;;;;;;;;;;;34.67;36.79;95460.63;10455666;28;1952;-76
2023/07/11 13:04:18;;;;;;;;;;;;;;;35.21;35.75;95448.84;10452495;28;2010;-75
2023/07/11 13:09:20;;;;;;;;;;;;;;;35.66;34.93;95445.16;10452422;28;1995;-75
2023/07/11 13:14:23;;;;;;;;;;;;;;;35.82;33.72;95450.66;10454441;28;2009;-76
2023/07/11 13:19:25;;;;;;;;;;;;;;;35.82;34.26;95435.88;10459446;28;2025;-77
2023/07/11 13:24:27;;;;;;;;;;;;;;;35.62;34.00;95442.47;10460273;28;2013;-77
2023/07/11 13:29:30;;;;;;;;;;;;;;;35.26;34.55;95434.31;10462528;28;1879;-76
2023/07/11 13:34:32;;;;;;;;;;;;;;;35.82;33.63;95442.28;10463287;28;1930;-75
2023/07/11 13:39:35;;;;;;;;;;;;;;;35.83;33.20;95437.47;10463308;28;1877;-77
2023/07/11 13:44:37;;;;;;;;;;;;;;;36.57;32.78;95436.31;10456932;28;4485;-76
2023/07/11 13:49:40;;;;;;;;;;;;;;;36.98;30.55;95418.50;10460039;28;1869;-75
2023/07/11 13:54:43;;;;;;;;;;;;;;;37.01;32.21;95429.56;10459255;28;2007;-74
2023/07/11 13:59:47;;;;;;;;;;;;;;;36.81;32.18;95417.88;10458646;28;2220;-75
2023/07/11 14:05:04;;;;;;;;;;;;;;;35.83;34.15;95415.09;10458061;28;1971;-76
2023/07/11 14:10:07;;;;;;;;;;;;;;;36.23;32.65;95421.03;10461623;28;1979;-77
2023/07/11 14:15:09;;;;;;;;;;;;;;;36.71;31.86;95411.44;10458193;28;2033;-75
2023/07/11 14:20:15;;;;;;;;;;;;;;;36.54;32.97;95405.19;10460064;28;1920;-76
2023/07/11 14:25:20;;;;;;;;;;;;;;;36.04;34.30;95394.84;10456469;28;2015;-77
2023/07/11 14:30:22;;;;;;;;;;;;;;;36.16;33.88;95390.47;10459040;28;2111;-76
2023/07/11 14:35:25;;;;;;;;;;;;;;;36.39;33.84;95390.09;10457054;28;2040;-75
2023/07/11 14:40:30;;;;;;;;;;;;;;;36.61;33.23;95390.16;10455350;28;4493;-75
2023/07/11 14:45:32;;;;;;;;;;;;;;;36.86;31.81;95383.69;10461234;28;2611;-75
2023/07/11 14:50:35;;;;;;;;;;;;;;;36.62;32.24;95374.16;10459356;28;1861;-76
2023/07/11 14:55:37;;;;;;;;;;;;;;;36.87;30.56;95351.66;10462845;28;2041;-75
2023/07/11 15:00:43;;;;;;;;;;;;;;;36.83;31.16;95361.41;10462931;28;2014;-77
2023/07/11 15:05:45;;;;;;;;;;;;;;;36.48;31.94;95362.22;10459031;28;1987;-74
2023/07/11 15:10:50;;;;;;;;;;;;;;;36.78;30.79;95337.56;10457881;28;1956;-79
2023/07/11 15:15:54;;;;;;;;;;;;;;;36.96;30.46;95342.53;10460830;28;2113;-75
2023/07/11 15:20:57;;;;;;;;;;;;;;;37.01;30.62;95333.53;10462242;28;1912;-76
2023/07/11 15:25:59;;;;;;;;;;;;;;;36.55;30.50;95336.00;10459865;28;1956;-76
2023/07/11 15:31:02;;;;;;;;;;;;;;;37.02;26.36;95312.69;10460212;28;2031;-76
2023/07/11 15:36:05;;;;;;;;;;;;;;;37.22;26.41;95309.53;10458313;28;2380;-77
2023/07/11 15:41:08;;;;;;;;;;;;;;;36.69;22.50;95303.88;10464547;28;4536;-76
2023/07/11 15:46:10;;;;;;;;;;;;;;;36.78;20.60;95292.78;10460472;28;1888;-76
2023/07/11 15:51:13;;;;;;;;;;;;;;;36.57;20.44;95301.94;10459439;28;1894;-75
2023/07/11 15:56:15;;;;;;;;;;;;;;;36.19;19.69;95281.22;10455328;28;1913;-74
2023/07/11 16:01:18;;;;;;;;;;;;;;;36.29;19.83;95296.09;10457208;28;2205;-74
2023/07/11 16:06:20;;;;;;;;;;;;;;;36.31;20.63;95296.41;10457844;28;1900;-74
2023/07/11 16:11:22;;;;;;;;;;;;;;;35.91;20.46;95283.00;10462254;28;1861;-74
2023/07/11 16:16:25;;;;;;;;;;;;;;;35.73;21.49;95277.19;10464105;28;1932;-74
2023/07/11 16:21:28;;;;;;;;;;;;;;;35.51;20.84;95277.13;10464887;28;1938;-74
2023/07/11 16:26:30;;;;;;;;;;;;;;;35.44;21.08;95286.50;10463113;28;2067;-74
2023/07/11 16:31:33;;;;;;;;;;;;;;;35.26;20.96;95275.06;10464346;28;2655;-73
2023/07/11 16:36:35;;;;;;;;;;;;;;;34.93;20.80;95268.91;10462619;28;1985;-74
2023/07/11 16:41:38;;;;;;;;;;;;;;;34.96;21.17;95276.38;10468842;28;4489;-74
2023/07/11 16:46:40;;;;;;;;;;;;;;;34.86;21.83;95261.47;10460603;28;1920;-74
2023/07/11 16:51:43;;;;;;;;;;;;;;;34.75;21.95;95249.88;10461653;28;1944;-73
2023/07/11 16:56:46;;;;;;;;;;;;;;;34.63;20.54;95237.44;10471805;28;1984;-75
2023/07/11 17:01:48;;;;;;;;;;;;;;;34.48;20.37;95241.84;10470054;28;2047;-74
2023/07/11 17:06:51;;;;;;;;;;;;;;;34.36;21.88;95228.66;10467002;28;2047;-74
2023/07/11 17:11:54;;;;;;;;;;;;;;;34.29;22.44;95235.22;10469358;28;1894;-75
2023/07/11 17:16:57;;;;;;;;;;;;;;;34.12;23.72;95234.47;10469534;28;1941;-74
2023/07/11 17:22:01;;;;;;;;;;;;;;;33.94;24.27;95231.38;10466534;28;1940;-73
2023/07/11 17:27:04;;;;;;;;;;;;;;;33.76;25.13;95248.53;10467767;28;2357;-75
2023/07/11 17:32:07;;;;;;;;;;;;;;;33.73;25.87;95243.84;10465434;28;1960;-74
2023/07/11 17:37:10;;;;;;;;;;;;;;;33.58;26.81;95243.41;10467738;28;1956;-76
2023/07/11 17:42:14;;;;;;;;;;;;;;;33.37;27.81;95243.13;10472410;28;4557;-76
2023/07/11 17:47:17;;;;;;;;;;;;;;;33.21;28.30;95241.91;10466542;28;1922;-75
2023/07/11 17:52:23;;;;;;;;;;;;;;;33.07;29.12;95231.06;10466231;28;1932;-76
2023/07/11 17:57:26;;;;;;;;;;;;;;;33.09;29.23;95231.44;10469057;28;1940;-75
2023/07/11 18:02:29;;;;;;;;;;;;;;;32.79;30.41;95230.47;10467508;28;2512;-76
2023/07/11 18:07:46;;;;;;;;;;;;;;;32.67;30.69;95216.44;10463818;28;1933;-76
2023/07/11 18:12:49;;;;;;;;;;;;;;;32.39;31.87;95201.16;10463700;28;1907;-76
2023/07/11 18:18:10;;;;;;;;;;;;;;;32.11;31.95;95178.22;10465962;28;2000;-76
2023/07/11 18:23:13;;;;;;;;;;;;;;;32.14;31.93;95179.38;10466409;28;2079;-75
2023/07/11 18:28:15;;;;;;;;;;;;;;;32.01;32.15;95154.22;10465334;28;2008;-75
2023/07/11 18:33:18;;;;;;;;;;;;;;;31.82;32.51;95143.88;10466541;28;2074;-77
2023/07/11 18:38:21;;;;;;;;;;;;;;;31.69;33.07;95136.16;10468096;28;1924;-74
2023/07/11 18:43:27;;;;;;;;;;;;;;;31.42;33.94;95132.66;10478983;28;1972;-93
2023/07/11 18:53:47;;;;;;;;;;;;;;;30.95;35.17;95121.56;10468254;28;1984;-83
2023/07/11 18:58:52;;;;;;;;;;;;;;;30.63;36.05;95120.03;10468046;28;1953;-78
2023/07/11 19:04:00;;;;;;;;;;;;;;;30.40;36.21;95120.75;10468685;28;1908;-89
2023/07/11 19:14:42;;;;;;;;;;;;;;;29.85;38.08;95123.84;10463612;28;1968;-82
2023/07/11 19:20:07;;;;;;;;;;;;;;;29.44;40.20;95099.72;10461261;28;1951;-84
2023/07/11 19:25:39;;;;;;;;;;;;;;;29.17;41.49;95096.06;10461128;28;1930;-83
2023/07/11 19:36:08;;;;;;;;;;;;;;;28.82;43.13;95089.63;10496900;28;1931;-85
2023/07/11 19:41:15;;;;;;;;;;;;;;;28.68;43.52;95086.97;10473886;28;4578;-83
2023/07/11 19:51:56;;;;;;;;;;;;;;;28.45;48.27;95091.09;10490575;28;1492;-85
2023/07/11 19:57:09;;;;;;;;;;;;;;;28.36;48.52;95090.75;10489793;28;1919;-86
2023/07/11 20:02:18;;;;;;;;;;;;;;;28.23;47.81;95073.03;10484172;28;1508;-86
2023/07/11 20:18:04;;;;;;;;;;;;;;;28.04;62.96;95101.16;10468072;28;2307;-68
2023/07/11 20:23:08;;;;;;;;;;;;;;;27.85;73.33;95081.13;10465477;28;1891;-73
2023/07/11 20:28:12;;;;;;;;;;;;;;;27.68;71.46;95081.97;10462557;28;1976;-72
2023/07/11 20:33:17;;;;;;;;;;;;;;;27.68;73.20;95096.59;10460808;28;1992;-72
2023/07/11 20:38:22;;;;;;;;;;;;;;;27.62;66.27;95078.06;10461321;28;1973;-71
2023/07/11 20:43:31;;;;;;;;;;;;;;;27.62;69.27;95061.50;10461710;28;4668;-70
2023/07/11 20:48:38;;;;;;;;;;;;;;;27.58;71.64;95066.25;10463131;28;1900;-70
2023/07/11 20:53:44;;;;;;;;;;;;;;;27.46;75.38;95075.75;10460679;28;1950;-71
2023/07/11 20:58:47;;;;;;;;;;;;;;;27.41;78.74;95076.94;10459536;28;1903;-71
2023/07/11 21:03:51;;;;;;;;;;;;;;;27.38;82.86;95074.97;10460101;28;1896;-69
2023/07/11 21:08:56;;;;;;;;;;;;;;;27.36;85.75;95071.84;10458613;28;1967;-71
2023/07/11 21:14:03;;;;;;;;;;;;;;;27.37;87.13;95064.34;10461263;28;2003;-72
2023/07/11 21:19:08;;;;;;;;;;;;;;;27.39;88.64;95075.75;10458494;28;2008;-72
2023/07/11 21:24:18;;;;;;;;;;;;;;;27.33;90.01;95089.19;10461653;28;2170;-72
2023/07/11 21:29:23;;;;;;;;;;;;;;;27.29;91.11;95091.16;10459812;28;1932;-71
2023/07/11 21:34:28;;;;;;;;;;;;;;;27.30;92.54;95127.84;10463651;28;2009;-69
2023/07/11 21:39:32;;;;;;;;;;;;;;;27.31;93.55;95159.75;10470189;28;1998;-70
2023/07/11 21:44:35;;;;;;;;;;;;;;;27.45;93.68;95373.03;10470171;28;1971;-70
2023/07/11 21:49:44;;;;;;;;;;;;;;;25.42;94.79;95472.84;10464465;28;2066;-73
2023/07/11 21:54:47;;;;;;;;;;;;;;;;;;10467307;28;2204;-73
2023/07/11 21:59:55;;;;;;;;;;;;;;;19.04;100.00;95602.91;10466442;28;1895;-73
2023/07/11 22:05:01;;;;;;;;;;;;;;;18.18;100.00;95615.78;10462587;28;1894;-74
2023/07/11 22:10:08;;;;;;;;;;;;;;;17.91;100.00;95719.53;10464626;28;2227;-77
2023/07/11 22:15:13;;;;;;;;;;;;;;;18.03;100.00;95711.53;10467190;28;1957;-75
2023/07/11 22:20:19;;;;;;;;;;;;;;;18.15;100.00;95740.81;10465155;28;2040;-75
2023/07/11 22:25:24;;;;;;;;;;;;;;;18.22;100.00;95766.38;10465779;28;1977;-75
2023/07/11 22:30:31;;;;;;;;;;;;;;;18.34;100.00;95791.03;10450928;28;2046;-74
2023/07/11 22:35:35;;;;;;;;;;;;;;;18.40;100.00;95816.16;10466611;28;1976;-73
2023/07/11 22:40:41;;;;;;;;;;;;;;;18.39;100.00;95805.59;10469572;28;4533;-75
2023/07/11 22:45:53;;;;;;;;;;;;;;;18.27;100.00;95804.31;10448862;28;2060;-76
2023/07/11 22:51:05;;;;;;;;;;;;;;;18.28;100.00;95802.41;10463512;28;1940;-75
2023/07/11 22:56:12;;;;;;;;;;;;;;;18.19;100.00;95813.25;10509951;28;1821;-76
2023/07/11 23:01:19;;;;;;;;;;;;;;;18.33;100.00;95811.19;10492890;28;1829;-77
2023/07/11 23:06:25;;;;;;;;;;;;;;;18.49;100.00;95807.97;10464862;28;2435;-77
2023/07/11 23:11:30;;;;;;;;;;;;;;;18.59;100.00;95821.25;10465760;28;1941;-76
2023/07/11 23:16:37;;;;;;;;;;;;;;;18.82;100.00;95816.41;10462534;28;1992;-75
2023/07/11 23:21:41;;;;;;;;;;;;;;;18.87;100.00;95778.09;10464867;28;2225;-75
2023/07/11 23:26:45;;;;;;;;;;;;;;;18.94;100.00;95753.88;10466401;28;1979;-75
2023/07/11 23:32:02;;;;;;;;;;;;;;;18.92;100.00;95769.75;10466705;28;1940;-74
2023/07/11 23:37:07;;;;;;;;;;;;;;;18.96;100.00;95753.53;10465767;28;1907;-74
2023/07/11 23:42:15;;;;;;;;;;;;;;;18.89;100.00;95743.97;10467075;28;1908;-75
2023/07/11 23:47:25;;;;;;;;;;;;;;;19.31;100.00;95737.81;10463079;28;1957;-68
2023/07/11 23:52:30;;;;;;;;;;;;;;;19.16;100.00;95704.56;10461778;28;2072;-69
2023/07/11 23:57:36;;;;;;;;;;;;;;;19.45;100.00;95695.56;10466967;28;1861;-69
